Salamandra — UBTF8 — position and weather

sailwx.info

Track history (hours):
 
Tides and Currents Weather Stations Pressure Air Temp Water Temp Dewpoint Dewpoint Depression Visibility Wind Speed Wind Dir Waves Ship Positions

Salamandra

Last reported at 2018-Jul-20 12:30 UTC. Time now 2018-Jul-20 12:29 UTC.
Position N 44°34' E 038°05'.

Length 29 m; draft 1.2 m.

Type: Passenger vessel. MMSI: 273336030.

Date/timePositionNaut miles runAvg speedWind from/ knotsBaromVisibWave heightAir tempDewpointWater temp
2018-Jul-20 12:30N 44°34' E 038°05'0 0.1
2018-Jul-20 12:00N 44°34' E 038°04'2 3.3
2018-Jul-20 11:30N 44°35' E 038°02'1 2.6
2018-Jul-20 11:00N 44°33' E 038°02'2 3.2
2018-Jul-20 10:26N 44°35' E 038°03'2 4.4
2018-Jul-20 10:00N 44°34' E 038°05'0 0.0
2018-Jul-20 09:30N 44°34' E 038°05'2 3.3
2018-Jul-20 09:00N 44°35' E 038°03'1 1.6
2018-Jul-20 08:30N 44°34' E 038°02'1 1.2
2018-Jul-20 08:00N 44°35' E 038°03'2 3.2
2018-Jul-20 07:30N 44°34' E 038°04'0 0.1
2018-Jul-20 07:00N 44°34' E 038°05'0 0.0
2018-Jul-20 06:30N 44°34' E 038°05'0 0.0
2018-Jul-20 06:01N 44°34' E 038°05'0 0.0
2018-Jul-20 05:30N 44°34' E 038°05'0 0.0
2018-Jul-20 05:00N 44°34' E 038°05'0 0.0
2018-Jul-20 04:30N 44°34' E 038°05'0 0.0
2018-Jul-20 04:00N 44°34' E 038°05'0 0.0
2018-Jul-20 03:30N 44°34' E 038°05'0 0.0
2018-Jul-20 03:00N 44°34' E 038°05'0 0.0
2018-Jul-20 02:30N 44°34' E 038°05'0 0.0
2018-Jul-20 02:00N 44°34' E 038°05'0 0.0
2018-Jul-20 01:30N 44°34' E 038°05'0 0.0
2018-Jul-20 01:00N 44°34' E 038°05'0 0.0
2018-Jul-20 00:30N 44°34' E 038°05'0 0.0
2018-Jul-20 00:00N 44°34' E 038°05'0 0.0
2018-Jul-19 23:30N 44°34' E 038°05'0 0.0
2018-Jul-19 23:00N 44°34' E 038°05'0 0.0
2018-Jul-19 22:30N 44°34' E 038°05'0 0.0
2018-Jul-19 22:00N 44°34' E 038°05'0 0.0
2018-Jul-19 21:30N 44°34' E 038°05'0 0.0
2018-Jul-19 21:00N 44°34' E 038°05'0 0.0
2018-Jul-19 20:30N 44°34' E 038°05'0 0.0
2018-Jul-19 20:00N 44°34' E 038°05'0 0.0
2018-Jul-19 19:30N 44°34' E 038°05'0 0.0
2018-Jul-19 19:01N 44°34' E 038°04'0 0.0
2018-Jul-19 18:29N 44°34' E 038°05'0 0.0
2018-Jul-19 18:00N 44°34' E 038°05'0 0.0
2018-Jul-19 17:30N 44°34' E 038°05'0 0.0
2018-Jul-19 17:00N 44°34' E 038°05'2 3.6
2018-Jul-19 16:30N 44°34' E 038°02'2 3.5
2018-Jul-19 16:00N 44°34' E 038°05'0 0.0
2018-Jul-19 15:30N 44°34' E 038°05'2 3.1
2018-Jul-19 15:00N 44°34' E 038°02'2 3.1
2018-Jul-19 14:30N 44°34' E 038°05'1 1.3
2018-Jul-19 13:30N 44°34' E 038°03'1 2.7
2018-Jul-19 13:00N 44°34' E 038°05'0 0.0
2018-Jul-19 12:30N 44°34' E 038°05'0 0.0
2018-Jul-19 12:00N 44°34' E 038°05'2 3.4
2018-Jul-19 11:30N 44°35' E 038°03'1 2.4
2018-Jul-19 10:59N 44°34' E 038°03'1 2.9
2018-Jul-19 10:30N 44°35' E 038°03'2 3.7
2018-Jul-19 10:00N 44°34' E 038°05'0 0.0
2018-Jul-19 09:30N 44°34' E 038°05'0 0.0
2018-Jul-19 09:00N 44°34' E 038°05'0 0.0
2018-Jul-19 08:30N 44°34' E 038°05'0 0.0
2018-Jul-19 08:01N 44°34' E 038°05'0 0.0
2018-Jul-19 07:29N 44°34' E 038°05'0 0.0
2018-Jul-19 07:00N 44°34' E 038°05'0 0.0
2018-Jul-19 06:30N 44°34' E 038°05'0 0.0
2018-Jul-19 06:00N 44°34' E 038°05'0 0.0
2018-Jul-19 05:30N 44°34' E 038°05'0 0.0
2018-Jul-19 05:00N 44°34' E 038°05'0 0.0
2018-Jul-19 04:31N 44°34' E 038°05'0 0.0
2018-Jul-19 04:00N 44°34' E 038°05'0 0.0
2018-Jul-19 03:30N 44°34' E 038°04'0 0.0
2018-Jul-19 03:00N 44°34' E 038°05'0 0.0
2018-Jul-19 02:30N 44°34' E 038°05'0 0.0
2018-Jul-19 02:01N 44°34' E 038°05'0 0.0
2018-Jul-19 01:30N 44°34' E 038°05'0 0.0
2018-Jul-19 01:00N 44°34' E 038°05'0 0.0
2018-Jul-19 00:30N 44°34' E 038°05'0 0.0
2018-Jul-19 00:00N 44°34' E 038°05'0 0.0
2018-Jul-18 23:30N 44°34' E 038°05'0 0.0
2018-Jul-18 22:59N 44°34' E 038°05'0 0.0
2018-Jul-18 22:31N 44°34' E 038°05'0 0.0
2018-Jul-18 22:01N 44°34' E 038°05'1 1.4
2018-Jul-18 21:30N 44°34' E 038°04'1 1.3
2018-Jul-18 21:00N 44°34' E 038°03'0 0.2
2018-Jul-18 20:30N 44°34' E 038°03'0 0.3
2018-Jul-18 19:59N 44°34' E 038°03'0 0.2
2018-Jul-18 19:30N 44°34' E 038°03'1 2.6
2018-Jul-18 19:00N 44°34' E 038°05'0 0.0
2018-Jul-18 18:30N 44°34' E 038°05'0 0.0
2018-Jul-18 18:00N 44°34' E 038°05'0 0.0
2018-Jul-18 17:30N 44°34' E 038°05'0 0.0
2018-Jul-18 16:59N 44°34' E 038°05'0 0.0
2018-Jul-18 16:30N 44°34' E 038°05'0 0.0
2018-Jul-18 16:00N 44°34' E 038°05'1 2.6
2018-Jul-18 15:30N 44°34' E 038°03'1 2.7
2018-Jul-18 15:00N 44°34' E 038°05'0 0.0
2018-Jul-18 14:30N 44°34' E 038°05'0 0.0
2018-Jul-18 13:30N 44°34' E 038°05'0 0.0
2018-Jul-18 13:00N 44°34' E 038°05'1 2.8
2018-Jul-18 12:30N 44°34' E 038°03'1 2.7
2018-Jul-18 12:00N 44°34' E 038°05'0 0.0
2018-Jul-18 11:30N 44°34' E 038°05'0 0.0
2018-Jul-18 10:30N 44°34' E 038°04'1 2.4
2018-Jul-18 10:00N 44°34' E 038°03'1 2.5
2018-Jul-18 09:30N 44°34' E 038°05'0 0.0
2018-Jul-18 09:00N 44°34' E 038°05'0 0.0
2018-Jul-18 08:29N 44°34' E 038°05'1 2.7
2018-Jul-18 08:00N 44°34' E 038°03'1 2.6
2018-Jul-18 07:30N 44°34' E 038°05'0 0.0
2018-Jul-18 07:00N 44°34' E 038°05'0 0.0
2018-Jul-18 06:29N 44°34' E 038°05'0 0.0
2018-Jul-18 06:01N 44°34' E 038°05'0 0.0
2018-Jul-18 05:30N 44°34' E 038°05'0 0.0
2018-Jul-18 05:00N 44°34' E 038°05'0 0.0
2018-Jul-18 04:30N 44°34' E 038°05'0 0.0
2018-Jul-18 04:00N 44°34' E 038°05'0 0.0
2018-Jul-18 03:30N 44°34' E 038°05'0 0.0
2018-Jul-18 03:00N 44°34' E 038°05'0 0.0
2018-Jul-18 02:30N 44°34' E 038°05'0 0.0
2018-Jul-18 02:01N 44°34' E 038°05'0 0.0
2018-Jul-18 01:30N 44°34' E 038°05'0 0.0
2018-Jul-18 01:00N 44°34' E 038°05'0 0.0
2018-Jul-18 00:30N 44°34' E 038°05'0 0.0
2018-Jul-18 00:00N 44°34' E 038°05'0 0.0
2018-Jul-17 23:30N 44°34' E 038°05'0 0.0
2018-Jul-17 23:00N 44°34' E 038°05'0 0.0
2018-Jul-17 22:30N 44°34' E 038°05'0 0.0
2018-Jul-17 22:00N 44°34' E 038°05'0 0.0
2018-Jul-17 21:29N 44°34' E 038°05'0 0.0
2018-Jul-17 21:00N 44°34' E 038°05'0 0.0
2018-Jul-17 20:30N 44°34' E 038°04'0 0.0
2018-Jul-17 20:00N 44°34' E 038°05'0 0.0
2018-Jul-17 19:29N 44°34' E 038°05'0 0.0
2018-Jul-17 19:00N 44°34' E 038°05'0 0.0
2018-Jul-17 18:30N 44°34' E 038°05'0 0.0
2018-Jul-17 18:00N 44°34' E 038°05'1 1.1
2018-Jul-17 17:29N 44°34' E 038°04'0 0.7
2018-Jul-17 17:00N 44°34' E 038°04'1 1.1
2018-Jul-17 16:30N 44°34' E 038°03'1 2.4
2018-Jul-17 15:59N 44°34' E 038°05'0 0.0
2018-Jul-17 15:30N 44°34' E 038°05'0 0.0
2018-Jul-17 15:00N 44°34' E 038°05'0 0.0
2018-Jul-17 14:30N 44°34' E 038°05'0 0.0
2018-Jul-17 13:59N 44°34' E 038°05'0 0.0
2018-Jul-17 13:29N 44°34' E 038°05'0 0.0
2018-Jul-17 13:01N 44°34' E 038°05'0 0.0
2018-Jul-17 12:30N 44°34' E 038°05'0 0.0
2018-Jul-17 11:59N 44°34' E 038°05'1 2.9
2018-Jul-17 11:29N 44°34' E 038°02'1 2.9
2018-Jul-17 11:00N 44°34' E 038°05'0 0.0
2018-Jul-17 10:30N 44°34' E 038°05'0 0.0
2018-Jul-17 10:01N 44°34' E 038°05'0 0.0
2018-Jul-17 09:30N 44°34' E 038°05'1 2.2
2018-Jul-17 09:00N 44°34' E 038°03'1 1.2
2018-Jul-17 08:29N 44°34' E 038°02'1 1.6
2018-Jul-17 07:59N 44°34' E 038°02'2 3.1
2018-Jul-17 07:30N 44°34' E 038°05'0 0.0
2018-Jul-17 07:00N 44°34' E 038°05'0 0.0
2018-Jul-17 06:31N 44°34' E 038°05'0 0.0
2018-Jul-17 05:59N 44°34' E 038°05'0 0.0
2018-Jul-17 05:29N 44°34' E 038°05'0 0.0
2018-Jul-17 05:01N 44°34' E 038°05'0 0.0
2018-Jul-17 04:30N 44°34' E 038°05'0 0.0
2018-Jul-17 04:00N 44°34' E 038°05'0 0.0
2018-Jul-17 03:30N 44°34' E 038°05'0 0.0
2018-Jul-17 03:00N 44°34' E 038°05'0 0.0
2018-Jul-17 02:29N 44°34' E 038°04'0 0.0
2018-Jul-17 02:00N 44°34' E 038°05'0 0.0
2018-Jul-17 01:30N 44°34' E 038°05'0 0.0
2018-Jul-17 01:00N 44°34' E 038°05'0 0.0
2018-Jul-17 00:30N 44°34' E 038°05'0 0.0
2018-Jul-16 23:31N 44°34' E 038°05'0 0.0
2018-Jul-16 23:00N 44°34' E 038°05'0 0.0
2018-Jul-16 22:30N 44°34' E 038°05'0 0.0
2018-Jul-16 22:00N 44°34' E 038°05'0 0.0
2018-Jul-16 21:30N 44°34' E 038°05'0 0.0
2018-Jul-16 21:00N 44°34' E 038°05'0 0.0
2018-Jul-16 20:31N 44°34' E 038°05'0 0.0
2018-Jul-16 20:00N 44°34' E 038°05'0 0.0
2018-Jul-16 19:30N 44°34' E 038°05'0 0.0
2018-Jul-16 19:00N 44°34' E 038°05'0 0.0
2018-Jul-16 18:30N 44°34' E 038°05'0 0.0
2018-Jul-16 18:00N 44°34' E 038°05'2 2.9
2018-Jul-16 17:29N 44°34' E 038°02'0 0.8
2018-Jul-16 17:00N 44°34' E 038°02'1 2.3
2018-Jul-16 16:30N 44°34' E 038°03'1 2.3
2018-Jul-16 16:00N 44°34' E 038°05'0 0.0
2018-Jul-16 15:30N 44°34' E 038°05'0 0.0
2018-Jul-16 15:01N 44°34' E 038°05'2 3.2
2018-Jul-16 14:30N 44°35' E 038°03'1 1.2
2018-Jul-16 13:59N 44°34' E 038°02'1 1.5
2018-Jul-16 13:30N 44°35' E 038°03'2 3.8
2018-Jul-16 13:00N 44°34' E 038°05'0 0.0
2018-Jul-16 12:30N 44°34' E 038°05'0 0.0
2018-Jul-16 12:00N 44°34' E 038°05'2 3.7
2018-Jul-16 11:30N 44°35' E 038°03'2 3.8
2018-Jul-16 10:59N 44°33' E 038°02'2 4.1
2018-Jul-16 10:31N 44°35' E 038°03'2 3.7
2018-Jul-16 10:01N 44°34' E 038°05'0 0.0
2018-Jul-16 09:30N 44°34' E 038°05'2 3.7
2018-Jul-16 09:00N 44°35' E 038°03'2 3.9
2018-Jul-16 08:29N 44°33' E 038°02'2 4.1
2018-Jul-16 08:00N 44°35' E 038°03'2 3.7
2018-Jul-16 07:30N 44°34' E 038°05'0 0.0
2018-Jul-16 07:00N 44°34' E 038°05'0 0.0
2018-Jul-16 06:29N 44°34' E 038°05'0 0.0
2018-Jul-16 06:00N 44°34' E 038°05'0 0.0
2018-Jul-16 05:30N 44°34' E 038°05'0 0.0
2018-Jul-16 05:00N 44°34' E 038°05'0 0.0
2018-Jul-16 04:30N 44°34' E 038°05'0 0.0
2018-Jul-16 04:00N 44°34' E 038°05'0 0.0
2018-Jul-16 03:30N 44°34' E 038°05'0 0.0
2018-Jul-16 03:01N 44°34' E 038°05'0 0.0
2018-Jul-16 02:30N 44°34' E 038°05'0 0.0
2018-Jul-16 02:00N 44°34' E 038°05'0 0.0
2018-Jul-16 01:29N 44°34' E 038°05'0 0.2
2018-Jul-16 01:00N 44°34' E 038°04'0 0.0
2018-Jul-16 00:29N 44°34' E 038°04'0 0.0
2018-Jul-16 00:00N 44°34' E 038°04'0 0.0
2018-Jul-15 23:29N 44°34' E 038°04'0 0.2
2018-Jul-15 23:00N 44°34' E 038°05'0 0.0
2018-Jul-15 22:30N 44°34' E 038°05'0 0.0
2018-Jul-15 22:01N 44°34' E 038°05'0 0.0
2018-Jul-15 21:30N 44°34' E 038°05'0 0.0
2018-Jul-15 21:00N 44°34' E 038°05'0 0.0
2018-Jul-15 20:30N 44°34' E 038°05'0 0.0
2018-Jul-15 20:00N 44°34' E 038°05'0 0.0
2018-Jul-15 19:30N 44°34' E 038°05'0 0.0
2018-Jul-15 19:00N 44°34' E 038°05'0 0.0
2018-Jul-15 18:30N 44°34' E 038°05'0 0.0
2018-Jul-15 18:00N 44°34' E 038°05'2 3.5
2018-Jul-15 17:29N 44°35' E 038°03'1 2.6
2018-Jul-15 17:01N 44°34' E 038°02'1 2.2
2018-Jul-15 16:28N 44°35' E 038°03'2 4.0
2018-Jul-15 16:00N 44°34' E 038°05'0 0.0
2018-Jul-15 15:30N 44°34' E 038°05'0 0.0
2018-Jul-15 15:00N 44°34' E 038°05'2 3.3
2018-Jul-15 14:31N 44°33' E 038°02'1 1.2
2018-Jul-15 14:00N 44°33' E 038°02'1 2.4
2018-Jul-15 13:30N 44°34' E 038°03'1 2.3
2018-Jul-15 12:59N 44°34' E 038°05'0 0.0
2018-Jul-15 12:30N 44°34' E 038°05'0 0.1
2018-Jul-15 12:01N 44°34' E 038°04'1 1.7
2018-Jul-15 11:30N 44°34' E 038°03'1 1.3
2018-Jul-15 11:00N 44°34' E 038°03'1 1.8
2018-Jul-15 10:30N 44°33' E 038°02'2 2.9
2018-Jul-15 09:59N 44°34' E 038°05'1 1.2
2018-Jul-15 09:29N 44°34' E 038°04'1 2.2
2018-Jul-15 09:00N 44°34' E 038°02'1 1.8
2018-Jul-15 08:30N 44°33' E 038°02'2 3.9
2018-Jul-15 08:00N 44°35' E 038°03'2 3.6
2018-Jul-15 07:30N 44°34' E 038°05'0 0.0
2018-Jul-15 07:00N 44°34' E 038°05'0 0.0
2018-Jul-15 06:30N 44°34' E 038°05'0 0.0
2018-Jul-15 06:00N 44°34' E 038°05'0 0.0
2018-Jul-15 05:30N 44°34' E 038°05'0 0.0
2018-Jul-15 05:00N 44°34' E 038°05'0 0.0
2018-Jul-15 04:30N 44°34' E 038°05'0 0.0
2018-Jul-15 04:00N 44°34' E 038°05'0 0.0
2018-Jul-15 03:31N 44°34' E 038°05'0 0.0
2018-Jul-15 03:00N 44°34' E 038°05'0 0.0
2018-Jul-15 02:30N 44°34' E 038°05'0 0.0
2018-Jul-15 02:01N 44°34' E 038°05'0 0.0
2018-Jul-15 01:30N 44°34' E 038°05'0 0.0
2018-Jul-15 01:00N 44°34' E 038°05'0 0.0
2018-Jul-15 00:31N 44°34' E 038°05'0 0.0
2018-Jul-14 23:59N 44°34' E 038°05'0 0.0
2018-Jul-14 23:30N 44°34' E 038°05'0 0.0
2018-Jul-14 23:01N 44°34' E 038°05'0 0.0
2018-Jul-14 22:30N 44°34' E 038°05'0 0.0
2018-Jul-14 21:59N 44°34' E 038°05'0 0.0
2018-Jul-14 21:30N 44°34' E 038°05'1 2.0
2018-Jul-14 21:00N 44°34' E 038°03'0 0.8
2018-Jul-14 20:30N 44°34' E 038°03'2 3.7
2018-Jul-14 20:00N 44°33' E 038°01'0 0.4
2018-Jul-14 19:30N 44°33' E 038°01'1 2.1
2018-Jul-14 19:00N 44°33' E 038°02'2 3.4
2018-Jul-14 18:30N 44°34' E 038°05'0 0.0
2018-Jul-14 18:00N 44°34' E 038°05'2 3.6
2018-Jul-14 17:30N 44°35' E 038°03'0 0.6
2018-Jul-14 16:37N 44°35' E 038°03'0 4.4
2018-Jul-14 16:31N 44°35' E 038°03'2 3.5
2018-Jul-14 15:59N 44°34' E 038°05'0 0.0
2018-Jul-14 15:29N 44°34' E 038°05'0 0.0
2018-Jul-14 15:00N 44°34' E 038°05'2 3.5
2018-Jul-14 14:28N 44°35' E 038°03'0 0.1
2018-Jul-14 13:30N 44°35' E 038°03'2 3.6
2018-Jul-14 13:00N 44°34' E 038°05'0 0.0
2018-Jul-14 12:29N 44°34' E 038°05'0 0.5
2018-Jul-14 12:00N 44°34' E 038°04'1 1.8
2018-Jul-14 11:29N 44°34' E 038°03'1 2.1
2018-Jul-14 11:00N 44°33' E 038°02'2 3.6
2018-Jul-14 10:29N 44°35' E 038°03'2 3.8
2018-Jul-14 10:00N 44°34' E 038°05'0 0.4
2018-Jul-14 09:30N 44°34' E 038°04'1 2.9
2018-Jul-14 09:00N 44°34' E 038°03'2 3.4
2018-Jul-14 08:31N 44°33' E 038°01'2 4.7
2018-Jul-14 08:00N 44°35' E 038°03'2 3.7
2018-Jul-14 07:30N 44°34' E 038°05'0 0.0
2018-Jul-14 07:00N 44°34' E 038°05'0 0.0
2018-Jul-14 06:29N 44°34' E 038°05'0 0.0
2018-Jul-14 06:00N 44°34' E 038°05'0 0.0
2018-Jul-14 05:30N 44°34' E 038°05'0 0.0
2018-Jul-14 05:00N 44°34' E 038°04'0 0.1
2018-Jul-14 04:30N 44°34' E 038°05'0 0.0
2018-Jul-14 04:00N 44°34' E 038°05'0 0.0
2018-Jul-14 03:30N 44°34' E 038°05'0 0.0
2018-Jul-14 02:59N 44°34' E 038°05'0 0.0
2018-Jul-14 02:30N 44°34' E 038°05'0 0.0
2018-Jul-14 02:00N 44°34' E 038°05'0 0.0
2018-Jul-14 01:30N 44°34' E 038°05'0 0.0
2018-Jul-14 01:00N 44°34' E 038°05'0 0.0
2018-Jul-14 00:31N 44°34' E 038°05'0 0.0
2018-Jul-13 23:59N 44°34' E 038°05'0 0.0
2018-Jul-13 23:30N 44°34' E 038°05'0 0.0
2018-Jul-13 23:00N 44°34' E 038°05'0 0.0
2018-Jul-13 22:30N 44°34' E 038°05'0 0.0
2018-Jul-13 22:00N 44°34' E 038°05'0 0.0
2018-Jul-13 21:30N 44°34' E 038°05'1 2.3
2018-Jul-13 21:00N 44°34' E 038°03'0 0.2
2018-Jul-13 20:30N 44°35' E 038°03'0 0.2
2018-Jul-13 19:58N 44°35' E 038°03'1 2.0
2018-Jul-13 19:31N 44°34' E 038°03'0 0.6
2018-Jul-13 19:00N 44°33' E 038°03'1 2.7
2018-Jul-13 18:30N 44°34' E 038°05'0 0.5
2018-Jul-13 17:59N 44°34' E 038°04'1 3.1
2018-Jul-13 17:30N 44°35' E 038°03'1 1.1
2018-Jul-13 17:00N 44°34' E 038°02'1 1.9
2018-Jul-13 16:30N 44°35' E 038°03'2 3.6
2018-Jul-13 15:59N 44°34' E 038°05'0 0.0
2018-Jul-13 15:30N 44°34' E 038°05'0 0.4
2018-Jul-13 15:00N 44°34' E 038°04'1 1.4
2018-Jul-13 14:00N 44°34' E 038°02'2 3.0
2018-Jul-13 13:28N 44°35' E 038°03'2 3.9
2018-Jul-13 13:00N 44°34' E 038°05'0 0.0
2018-Jul-13 12:30N 44°34' E 038°05'0 0.0
2018-Jul-13 12:00N 44°34' E 038°05'1 2.5
2018-Jul-13 11:29N 44°34' E 038°03'1 1.0
2018-Jul-13 10:59N 44°33' E 038°02'2 3.4
2018-Jul-13 10:31N 44°35' E 038°03'2 3.7
2018-Jul-13 10:00N 44°34' E 038°05'0 0.5
2018-Jul-13 09:30N 44°34' E 038°04'1 2.5
2018-Jul-13 09:00N 44°34' E 038°03'1 2.7
2018-Jul-13 08:30N 44°33' E 038°02'2 4.0
2018-Jul-13 07:59N 44°35' E 038°03'2 3.7
2018-Jul-13 07:30N 44°34' E 038°04'0 0.0
2018-Jul-13 07:00N 44°34' E 038°04'0 0.0
2018-Jul-13 06:30N 44°34' E 038°05'0 0.0
2018-Jul-13 06:00N 44°34' E 038°05'0 0.0
2018-Jul-13 05:30N 44°34' E 038°05'0 0.0
2018-Jul-13 05:00N 44°34' E 038°05'0 0.0
2018-Jul-13 04:31N 44°34' E 038°05'0 0.0
2018-Jul-13 04:00N 44°34' E 038°05'0 0.0
2018-Jul-13 03:30N 44°34' E 038°05'0 0.0
2018-Jul-13 03:00N 44°34' E 038°05'0 0.0
2018-Jul-13 02:30N 44°34' E 038°05'0 0.0
2018-Jul-13 02:00N 44°34' E 038°05'0 0.0
2018-Jul-13 01:31N 44°34' E 038°05'0 0.0
2018-Jul-13 01:00N 44°34' E 038°05'0 0.0
2018-Jul-13 00:30N 44°34' E 038°05'0 0.0
2018-Jul-13 00:00N 44°34' E 038°05'0 0.0
2018-Jul-12 23:30N 44°34' E 038°05'0 0.0
2018-Jul-12 22:59N 44°34' E 038°05'0 0.0
2018-Jul-12 22:30N 44°34' E 038°05'0 0.0
2018-Jul-12 22:01N 44°34' E 038°05'0 0.0
2018-Jul-12 21:30N 44°34' E 038°05'2 3.2
2018-Jul-12 21:00N 44°35' E 038°03'0 0.1
2018-Jul-12 20:30N 44°35' E 038°03'0 0.1
2018-Jul-12 20:00N 44°35' E 038°03'1 1.9
2018-Jul-12 19:30N 44°34' E 038°03'0 0.2
2018-Jul-12 19:00N 44°34' E 038°03'1 2.8
2018-Jul-12 18:30N 44°34' E 038°05'0 0.9
2018-Jul-12 18:00N 44°34' E 038°04'1 1.9
2018-Jul-12 17:29N 44°34' E 038°03'1 2.0
2018-Jul-12 17:00N 44°33' E 038°02'2 3.8
2018-Jul-12 16:28N 44°35' E 038°03'2 4.0
2018-Jul-12 16:00N 44°34' E 038°04'0 0.0
2018-Jul-12 15:30N 44°34' E 038°05'1 1.4
2018-Jul-12 15:00N 44°34' E 038°04'1 1.5
2018-Jul-12 14:30N 44°34' E 038°03'1 1.2
2018-Jul-12 14:00N 44°33' E 038°02'2 3.5
2018-Jul-12 13:29N 44°35' E 038°03'2 3.8
2018-Jul-12 13:00N 44°34' E 038°05'0 0.0
2018-Jul-12 12:30N 44°34' E 038°05'1 1.2
2018-Jul-12 12:00N 44°34' E 038°04'1 2.0
2018-Jul-12 11:31N 44°33' E 038°03'1 1.5
2018-Jul-12 11:00N 44°33' E 038°02'2 4.4
2018-Jul-12 10:30N 44°35' E 038°03'2 3.6
2018-Jul-12 10:00N 44°34' E 038°05'1 1.2
2018-Jul-12 09:30N 44°34' E 038°04'1 2.1
2018-Jul-12 08:59N 44°33' E 038°03'1 1.4
2018-Jul-12 08:30N 44°33' E 038°02'2 4.3
2018-Jul-12 07:58N 44°35' E 038°03'2 4.0
2018-Jul-12 07:30N 44°34' E 038°05'0 0.0
2018-Jul-12 07:00N 44°34' E 038°05'0 0.0
2018-Jul-12 06:30N 44°34' E 038°05'0 0.0
2018-Jul-12 05:59N 44°34' E 038°05'0 0.0
2018-Jul-12 05:30N 44°34' E 038°05'0 0.0
2018-Jul-12 05:01N 44°34' E 038°05'0 0.0
2018-Jul-12 04:30N 44°34' E 038°05'0 0.0
2018-Jul-12 04:00N 44°34' E 038°04'0 0.0
2018-Jul-12 03:30N 44°34' E 038°05'0 0.0
2018-Jul-12 02:59N 44°34' E 038°05'0 0.0
2018-Jul-12 02:30N 44°34' E 038°05'0 0.0
2018-Jul-12 02:00N 44°34' E 038°05'0 0.0
2018-Jul-12 01:30N 44°34' E 038°05'0 0.0
2018-Jul-12 01:00N 44°34' E 038°05'0 0.0
2018-Jul-12 00:30N 44°34' E 038°05'0 0.0
2018-Jul-12 00:00N 44°34' E 038°05'0 0.0
2018-Jul-11 23:31N 44°34' E 038°05'0 0.0
2018-Jul-11 23:01N 44°34' E 038°05'0 0.0
2018-Jul-11 22:30N 44°34' E 038°05'0 0.0
2018-Jul-11 22:01N 44°34' E 038°05'0 0.0
2018-Jul-11 21:31N 44°34' E 038°05'1 2.3
2018-Jul-11 21:00N 44°34' E 038°03'0 0.3
2018-Jul-11 20:30N 44°34' E 038°03'0 0.2
2018-Jul-11 20:01N 44°34' E 038°03'0 0.3
2018-Jul-11 19:30N 44°34' E 038°03'1 1.4
2018-Jul-11 18:59N 44°34' E 038°03'1 2.9
2018-Jul-11 18:31N 44°34' E 038°05'0 0.2
2018-Jul-11 18:00N 44°34' E 038°04'1 2.9
2018-Jul-11 17:30N 44°34' E 038°03'2 3.0
2018-Jul-11 17:00N 44°33' E 038°02'2 4.5
2018-Jul-11 16:30N 44°35' E 038°03'2 3.7
2018-Jul-11 16:00N 44°34' E 038°05'0 0.0
2018-Jul-11 15:30N 44°34' E 038°05'0 0.1
2018-Jul-11 15:00N 44°34' E 038°04'1 2.7
2018-Jul-11 14:30N 44°34' E 038°03'1 2.8
2018-Jul-11 14:00N 44°33' E 038°02'2 4.9
2018-Jul-11 13:30N 44°35' E 038°03'2 3.7
2018-Jul-11 13:00N 44°34' E 038°05'0 0.0
2018-Jul-11 12:30N 44°34' E 038°05'0 0.0
2018-Jul-11 12:00N 44°34' E 038°05'1 2.5
2018-Jul-11 11:29N 44°34' E 038°03'1 2.0
2018-Jul-11 11:01N 44°35' E 038°03'1 2.8
2018-Jul-11 10:30N 44°33' E 038°02'2 3.6
2018-Jul-11 10:00N 44°34' E 038°05'0 0.0
2018-Jul-11 09:30N 44°34' E 038°05'2 3.6
2018-Jul-11 09:00N 44°35' E 038°03'1 1.8
2018-Jul-11 08:30N 44°34' E 038°03'1 1.7
2018-Jul-11 08:00N 44°35' E 038°03'2 3.7
2018-Jul-11 07:30N 44°34' E 038°05'0 0.0
2018-Jul-11 07:00N 44°34' E 038°05'0 0.0
2018-Jul-11 06:30N 44°34' E 038°05'0 0.0
2018-Jul-11 06:00N 44°34' E 038°05'0 0.0
2018-Jul-11 05:30N 44°34' E 038°05'0 0.0
2018-Jul-11 05:00N 44°34' E 038°05'0 0.0
2018-Jul-11 04:30N 44°34' E 038°05'0 0.0
2018-Jul-11 04:00N 44°34' E 038°04'0 0.0
2018-Jul-11 03:29N 44°34' E 038°05'0 0.0
2018-Jul-11 02:59N 44°34' E 038°05'0 0.0
2018-Jul-11 02:30N 44°34' E 038°05'0 0.0
2018-Jul-11 02:00N 44°34' E 038°05'0 0.0
2018-Jul-11 01:30N 44°34' E 038°05'0 0.0
2018-Jul-11 01:00N 44°34' E 038°05'0 0.0
2018-Jul-11 00:31N 44°34' E 038°05'0 0.0
2018-Jul-11 00:00N 44°34' E 038°05'0 0.0
2018-Jul-10 23:31N 44°34' E 038°05'0 0.0
2018-Jul-10 23:00N 44°34' E 038°05'0 0.0
2018-Jul-10 22:30N 44°34' E 038°05'0 0.0
2018-Jul-10 22:01N 44°34' E 038°05'0 0.0
2018-Jul-10 21:30N 44°34' E 038°05'2 3.1
2018-Jul-10 21:01N 44°33' E 038°02'1 2.2
2018-Jul-10 20:30N 44°32' E 038°03'0 0.3
2018-Jul-10 20:01N 44°32' E 038°03'1 1.2
2018-Jul-10 19:30N 44°33' E 038°02'1 2.4
2018-Jul-10 19:00N 44°34' E 038°03'1 1.9
2018-Jul-10 18:30N 44°34' E 038°05'1 2.0
2018-Jul-10 18:00N 44°34' E 038°03'1 2.2
2018-Jul-10 17:30N 44°34' E 038°02'1 1.7
2018-Jul-10 17:00N 44°33' E 038°01'2 4.2
2018-Jul-10 16:29N 44°35' E 038°03'2 3.8
2018-Jul-10 16:00N 44°34' E 038°05'1 1.2
2018-Jul-10 15:30N 44°34' E 038°04'1 1.5
2018-Jul-10 14:59N 44°34' E 038°03'1 2.3
2018-Jul-10 14:30N 44°33' E 038°02'2 4.6
2018-Jul-10 14:00N 44°35' E 038°03'2 3.7
2018-Jul-10 13:30N 44°34' E 038°05'0 0.0
2018-Jul-10 12:59N 44°34' E 038°05'2 3.3
2018-Jul-10 12:30N 44°33' E 038°03'  
Track history (hours):
 
Tides and Currents Weather Stations Pressure Air Temp Water Temp Dewpoint Dewpoint Depression Visibility Wind Speed Wind Dir Waves Ship Positions

Salamandra

Last reported at 2018-Jul-20 12:30 UTC. Time now 2018-Jul-20 12:29 UTC.
Position N 44°34' E 038°05'.

Length 29 m; draft 1.2 m.

Type: Passenger vessel. MMSI: 273336030.

Date/timePositionNaut miles runAvg speedWind from/ knotsBaromVisibWave heightAir tempDewpointWater temp
2018-Jul-20 12:30N 44°34' E 038°05'0 0.1
2018-Jul-20 12:00N 44°34' E 038°04'2 3.3
2018-Jul-20 11:30N 44°35' E 038°02'1 2.6
2018-Jul-20 11:00N 44°33' E 038°02'2 3.2
2018-Jul-20 10:26N 44°35' E 038°03'2 4.4
2018-Jul-20 10:00N 44°34' E 038°05'0 0.0
2018-Jul-20 09:30N 44°34' E 038°05'2 3.3
2018-Jul-20 09:00N 44°35' E 038°03'1 1.6
2018-Jul-20 08:30N 44°34' E 038°02'1 1.2
2018-Jul-20 08:00N 44°35' E 038°03'2 3.2
2018-Jul-20 07:30N 44°34' E 038°04'0 0.1
2018-Jul-20 07:00N 44°34' E 038°05'0 0.0
2018-Jul-20 06:30N 44°34' E 038°05'0 0.0
2018-Jul-20 06:01N 44°34' E 038°05'0 0.0
2018-Jul-20 05:30N 44°34' E 038°05'0 0.0
2018-Jul-20 05:00N 44°34' E 038°05'0 0.0
2018-Jul-20 04:30N 44°34' E 038°05'0 0.0
2018-Jul-20 04:00N 44°34' E 038°05'0 0.0
2018-Jul-20 03:30N 44°34' E 038°05'0 0.0
2018-Jul-20 03:00N 44°34' E 038°05'0 0.0
2018-Jul-20 02:30N 44°34' E 038°05'0 0.0
2018-Jul-20 02:00N 44°34' E 038°05'0 0.0
2018-Jul-20 01:30N 44°34' E 038°05'0 0.0
2018-Jul-20 01:00N 44°34' E 038°05'0 0.0
2018-Jul-20 00:30N 44°34' E 038°05'0 0.0
2018-Jul-20 00:00N 44°34' E 038°05'0 0.0
2018-Jul-19 23:30N 44°34' E 038°05'0 0.0
2018-Jul-19 23:00N 44°34' E 038°05'0 0.0
2018-Jul-19 22:30N 44°34' E 038°05'0 0.0
2018-Jul-19 22:00N 44°34' E 038°05'0 0.0
2018-Jul-19 21:30N 44°34' E 038°05'0 0.0
2018-Jul-19 21:00N 44°34' E 038°05'0 0.0
2018-Jul-19 20:30N 44°34' E 038°05'0 0.0
2018-Jul-19 20:00N 44°34' E 038°05'0 0.0
2018-Jul-19 19:30N 44°34' E 038°05'0 0.0
2018-Jul-19 19:01N 44°34' E 038°04'0 0.0
2018-Jul-19 18:29N 44°34' E 038°05'0 0.0
2018-Jul-19 18:00N 44°34' E 038°05'0 0.0
2018-Jul-19 17:30N 44°34' E 038°05'0 0.0
2018-Jul-19 17:00N 44°34' E 038°05'2 3.6
2018-Jul-19 16:30N 44°34' E 038°02'2 3.5
2018-Jul-19 16:00N 44°34' E 038°05'0 0.0
2018-Jul-19 15:30N 44°34' E 038°05'2 3.1
2018-Jul-19 15:00N 44°34' E 038°02'2 3.1
2018-Jul-19 14:30N 44°34' E 038°05'1 1.3
2018-Jul-19 13:30N 44°34' E 038°03'1 2.7
2018-Jul-19 13:00N 44°34' E 038°05'0 0.0
2018-Jul-19 12:30N 44°34' E 038°05'0 0.0
2018-Jul-19 12:00N 44°34' E 038°05'2 3.4
2018-Jul-19 11:30N 44°35' E 038°03'1 2.4
2018-Jul-19 10:59N 44°34' E 038°03'1 2.9
2018-Jul-19 10:30N 44°35' E 038°03'2 3.7
2018-Jul-19 10:00N 44°34' E 038°05'0 0.0
2018-Jul-19 09:30N 44°34' E 038°05'0 0.0
2018-Jul-19 09:00N 44°34' E 038°05'0 0.0
2018-Jul-19 08:30N 44°34' E 038°05'0 0.0
2018-Jul-19 08:01N 44°34' E 038°05'0 0.0
2018-Jul-19 07:29N 44°34' E 038°05'0 0.0
2018-Jul-19 07:00N 44°34' E 038°05'0 0.0
2018-Jul-19 06:30N 44°34' E 038°05'0 0.0
2018-Jul-19 06:00N 44°34' E 038°05'0 0.0
2018-Jul-19 05:30N 44°34' E 038°05'0 0.0
2018-Jul-19 05:00N 44°34' E 038°05'0 0.0
2018-Jul-19 04:31N 44°34' E 038°05'0 0.0
2018-Jul-19 04:00N 44°34' E 038°05'0 0.0
2018-Jul-19 03:30N 44°34' E 038°04'0 0.0
2018-Jul-19 03:00N 44°34' E 038°05'0 0.0
2018-Jul-19 02:30N 44°34' E 038°05'0 0.0
2018-Jul-19 02:01N 44°34' E 038°05'0 0.0
2018-Jul-19 01:30N 44°34' E 038°05'0 0.0
2018-Jul-19 01:00N 44°34' E 038°05'0 0.0
2018-Jul-19 00:30N 44°34' E 038°05'0 0.0
2018-Jul-19 00:00N 44°34' E 038°05'0 0.0
2018-Jul-18 23:30N 44°34' E 038°05'0 0.0
2018-Jul-18 22:59N 44°34' E 038°05'0 0.0
2018-Jul-18 22:31N 44°34' E 038°05'0 0.0
2018-Jul-18 22:01N 44°34' E 038°05'1 1.4
2018-Jul-18 21:30N 44°34' E 038°04'1 1.3
2018-Jul-18 21:00N 44°34' E 038°03'0 0.2
2018-Jul-18 20:30N 44°34' E 038°03'0 0.3
2018-Jul-18 19:59N 44°34' E 038°03'0 0.2
2018-Jul-18 19:30N 44°34' E 038°03'1 2.6
2018-Jul-18 19:00N 44°34' E 038°05'0 0.0
2018-Jul-18 18:30N 44°34' E 038°05'0 0.0
2018-Jul-18 18:00N 44°34' E 038°05'0 0.0
2018-Jul-18 17:30N 44°34' E 038°05'0 0.0
2018-Jul-18 16:59N 44°34' E 038°05'0 0.0
2018-Jul-18 16:30N 44°34' E 038°05'0 0.0
2018-Jul-18 16:00N 44°34' E 038°05'1 2.6
2018-Jul-18 15:30N 44°34' E 038°03'1 2.7
2018-Jul-18 15:00N 44°34' E 038°05'0 0.0
2018-Jul-18 14:30N 44°34' E 038°05'0 0.0
2018-Jul-18 13:30N 44°34' E 038°05'0 0.0
2018-Jul-18 13:00N 44°34' E 038°05'1 2.8
2018-Jul-18 12:30N 44°34' E 038°03'1 2.7
2018-Jul-18 12:00N 44°34' E 038°05'0 0.0
2018-Jul-18 11:30N 44°34' E 038°05'0 0.0
2018-Jul-18 10:30N 44°34' E 038°04'1 2.4
2018-Jul-18 10:00N 44°34' E 038°03'1 2.5
2018-Jul-18 09:30N 44°34' E 038°05'0 0.0
2018-Jul-18 09:00N 44°34' E 038°05'0 0.0
2018-Jul-18 08:29N 44°34' E 038°05'1 2.7
2018-Jul-18 08:00N 44°34' E 038°03'1 2.6
2018-Jul-18 07:30N 44°34' E 038°05'0 0.0
2018-Jul-18 07:00N 44°34' E 038°05'0 0.0
2018-Jul-18 06:29N 44°34' E 038°05'0 0.0
2018-Jul-18 06:01N 44°34' E 038°05'0 0.0
2018-Jul-18 05:30N 44°34' E 038°05'0 0.0
2018-Jul-18 05:00N 44°34' E 038°05'0 0.0
2018-Jul-18 04:30N 44°34' E 038°05'0 0.0
2018-Jul-18 04:00N 44°34' E 038°05'0 0.0
2018-Jul-18 03:30N 44°34' E 038°05'0 0.0
2018-Jul-18 03:00N 44°34' E 038°05'0 0.0
2018-Jul-18 02:30N 44°34' E 038°05'0 0.0
2018-Jul-18 02:01N 44°34' E 038°05'0 0.0
2018-Jul-18 01:30N 44°34' E 038°05'0 0.0
2018-Jul-18 01:00N 44°34' E 038°05'0 0.0
2018-Jul-18 00:30N 44°34' E 038°05'0 0.0
2018-Jul-18 00:00N 44°34' E 038°05'0 0.0
2018-Jul-17 23:30N 44°34' E 038°05'0 0.0
2018-Jul-17 23:00N 44°34' E 038°05'0 0.0
2018-Jul-17 22:30N 44°34' E 038°05'0 0.0
2018-Jul-17 22:00N 44°34' E 038°05'0 0.0
2018-Jul-17 21:29N 44°34' E 038°05'0 0.0
2018-Jul-17 21:00N 44°34' E 038°05'0 0.0
2018-Jul-17 20:30N 44°34' E 038°04'0 0.0
2018-Jul-17 20:00N 44°34' E 038°05'0 0.0
2018-Jul-17 19:29N 44°34' E 038°05'0 0.0
2018-Jul-17 19:00N 44°34' E 038°05'0 0.0
2018-Jul-17 18:30N 44°34' E 038°05'0 0.0
2018-Jul-17 18:00N 44°34' E 038°05'1 1.1
2018-Jul-17 17:29N 44°34' E 038°04'0 0.7
2018-Jul-17 17:00N 44°34' E 038°04'1 1.1
2018-Jul-17 16:30N 44°34' E 038°03'1 2.4
2018-Jul-17 15:59N 44°34' E 038°05'0 0.0
2018-Jul-17 15:30N 44°34' E 038°05'0 0.0
2018-Jul-17 15:00N 44°34' E 038°05'0 0.0
2018-Jul-17 14:30N 44°34' E 038°05'0 0.0
2018-Jul-17 13:59N 44°34' E 038°05'0 0.0
2018-Jul-17 13:29N 44°34' E 038°05'0 0.0
2018-Jul-17 13:01N 44°34' E 038°05'0 0.0
2018-Jul-17 12:30N 44°34' E 038°05'0 0.0
2018-Jul-17 11:59N 44°34' E 038°05'1 2.9
2018-Jul-17 11:29N 44°34' E 038°02'1 2.9
2018-Jul-17 11:00N 44°34' E 038°05'0 0.0
2018-Jul-17 10:30N 44°34' E 038°05'0 0.0
2018-Jul-17 10:01N 44°34' E 038°05'0 0.0
2018-Jul-17 09:30N 44°34' E 038°05'1 2.2
2018-Jul-17 09:00N 44°34' E 038°03'1 1.2
2018-Jul-17 08:29N 44°34' E 038°02'1 1.6
2018-Jul-17 07:59N 44°34' E 038°02'2 3.1
2018-Jul-17 07:30N 44°34' E 038°05'0 0.0
2018-Jul-17 07:00N 44°34' E 038°05'0 0.0
2018-Jul-17 06:31N 44°34' E 038°05'0 0.0
2018-Jul-17 05:59N 44°34' E 038°05'0 0.0
2018-Jul-17 05:29N 44°34' E 038°05'0 0.0
2018-Jul-17 05:01N 44°34' E 038°05'0 0.0
2018-Jul-17 04:30N 44°34' E 038°05'0 0.0
2018-Jul-17 04:00N 44°34' E 038°05'0 0.0
2018-Jul-17 03:30N 44°34' E 038°05'0 0.0
2018-Jul-17 03:00N 44°34' E 038°05'0 0.0
2018-Jul-17 02:29N 44°34' E 038°04'0 0.0
2018-Jul-17 02:00N 44°34' E 038°05'0 0.0
2018-Jul-17 01:30N 44°34' E 038°05'0 0.0
2018-Jul-17 01:00N 44°34' E 038°05'0 0.0
2018-Jul-17 00:30N 44°34' E 038°05'0 0.0
2018-Jul-16 23:31N 44°34' E 038°05'0 0.0
2018-Jul-16 23:00N 44°34' E 038°05'0 0.0
2018-Jul-16 22:30N 44°34' E 038°05'0 0.0
2018-Jul-16 22:00N 44°34' E 038°05'0 0.0
2018-Jul-16 21:30N 44°34' E 038°05'0 0.0
2018-Jul-16 21:00N 44°34' E 038°05'0 0.0
2018-Jul-16 20:31N 44°34' E 038°05'0 0.0
2018-Jul-16 20:00N 44°34' E 038°05'0 0.0
2018-Jul-16 19:30N 44°34' E 038°05'0 0.0
2018-Jul-16 19:00N 44°34' E 038°05'0 0.0
2018-Jul-16 18:30N 44°34' E 038°05'0 0.0
2018-Jul-16 18:00N 44°34' E 038°05'2 2.9
2018-Jul-16 17:29N 44°34' E 038°02'0 0.8
2018-Jul-16 17:00N 44°34' E 038°02'1 2.3
2018-Jul-16 16:30N 44°34' E 038°03'1 2.3
2018-Jul-16 16:00N 44°34' E 038°05'0 0.0
2018-Jul-16 15:30N 44°34' E 038°05'0 0.0
2018-Jul-16 15:01N 44°34' E 038°05'2 3.2
2018-Jul-16 14:30N 44°35' E 038°03'1 1.2
2018-Jul-16 13:59N 44°34' E 038°02'1 1.5
2018-Jul-16 13:30N 44°35' E 038°03'2 3.8
2018-Jul-16 13:00N 44°34' E 038°05'0 0.0
2018-Jul-16 12:30N 44°34' E 038°05'0 0.0
2018-Jul-16 12:00N 44°34' E 038°05'2 3.7
2018-Jul-16 11:30N 44°35' E 038°03'2 3.8
2018-Jul-16 10:59N 44°33' E 038°02'2 4.1
2018-Jul-16 10:31N 44°35' E 038°03'2 3.7
2018-Jul-16 10:01N 44°34' E 038°05'0 0.0
2018-Jul-16 09:30N 44°34' E 038°05'2 3.7
2018-Jul-16 09:00N 44°35' E 038°03'2 3.9
2018-Jul-16 08:29N 44°33' E 038°02'2 4.1
2018-Jul-16 08:00N 44°35' E 038°03'2 3.7
2018-Jul-16 07:30N 44°34' E 038°05'0 0.0
2018-Jul-16 07:00N 44°34' E 038°05'0 0.0
2018-Jul-16 06:29N 44°34' E 038°05'0 0.0
2018-Jul-16 06:00N 44°34' E 038°05'0 0.0
2018-Jul-16 05:30N 44°34' E 038°05'0 0.0
2018-Jul-16 05:00N 44°34' E 038°05'0 0.0
2018-Jul-16 04:30N 44°34' E 038°05'0 0.0
2018-Jul-16 04:00N 44°34' E 038°05'0 0.0
2018-Jul-16 03:30N 44°34' E 038°05'0 0.0
2018-Jul-16 03:01N 44°34' E 038°05'0 0.0
2018-Jul-16 02:30N 44°34' E 038°05'0 0.0
2018-Jul-16 02:00N 44°34' E 038°05'0 0.0
2018-Jul-16 01:29N 44°34' E 038°05'0 0.2
2018-Jul-16 01:00N 44°34' E 038°04'0 0.0
2018-Jul-16 00:29N 44°34' E 038°04'0 0.0
2018-Jul-16 00:00N 44°34' E 038°04'0 0.0
2018-Jul-15 23:29N 44°34' E 038°04'0 0.2
2018-Jul-15 23:00N 44°34' E 038°05'0 0.0
2018-Jul-15 22:30N 44°34' E 038°05'0 0.0
2018-Jul-15 22:01N 44°34' E 038°05'0 0.0
2018-Jul-15 21:30N 44°34' E 038°05'0 0.0
2018-Jul-15 21:00N 44°34' E 038°05'0 0.0
2018-Jul-15 20:30N 44°34' E 038°05'0 0.0
2018-Jul-15 20:00N 44°34' E 038°05'0 0.0
2018-Jul-15 19:30N 44°34' E 038°05'0 0.0
2018-Jul-15 19:00N 44°34' E 038°05'0 0.0
2018-Jul-15 18:30N 44°34' E 038°05'0 0.0
2018-Jul-15 18:00N 44°34' E 038°05'2 3.5
2018-Jul-15 17:29N 44°35' E 038°03'1 2.6
2018-Jul-15 17:01N 44°34' E 038°02'1 2.2
2018-Jul-15 16:28N 44°35' E 038°03'2 4.0
2018-Jul-15 16:00N 44°34' E 038°05'0 0.0
2018-Jul-15 15:30N 44°34' E 038°05'0 0.0
2018-Jul-15 15:00N 44°34' E 038°05'2 3.3
2018-Jul-15 14:31N 44°33' E 038°02'1 1.2
2018-Jul-15 14:00N 44°33' E 038°02'1 2.4
2018-Jul-15 13:30N 44°34' E 038°03'1 2.3
2018-Jul-15 12:59N 44°34' E 038°05'0 0.0
2018-Jul-15 12:30N 44°34' E 038°05'0 0.1
2018-Jul-15 12:01N 44°34' E 038°04'1 1.7
2018-Jul-15 11:30N 44°34' E 038°03'1 1.3
2018-Jul-15 11:00N 44°34' E 038°03'1 1.8
2018-Jul-15 10:30N 44°33' E 038°02'2 2.9
2018-Jul-15 09:59N 44°34' E 038°05'1 1.2
2018-Jul-15 09:29N 44°34' E 038°04'1 2.2
2018-Jul-15 09:00N 44°34' E 038°02'1 1.8
2018-Jul-15 08:30N 44°33' E 038°02'2 3.9
2018-Jul-15 08:00N 44°35' E 038°03'2 3.6
2018-Jul-15 07:30N 44°34' E 038°05'0 0.0
2018-Jul-15 07:00N 44°34' E 038°05'0 0.0
2018-Jul-15 06:30N 44°34' E 038°05'0 0.0
2018-Jul-15 06:00N 44°34' E 038°05'0 0.0
2018-Jul-15 05:30N 44°34' E 038°05'0 0.0
2018-Jul-15 05:00N 44°34' E 038°05'0 0.0
2018-Jul-15 04:30N 44°34' E 038°05'0 0.0
2018-Jul-15 04:00N 44°34' E 038°05'0 0.0
2018-Jul-15 03:31N 44°34' E 038°05'0 0.0
2018-Jul-15 03:00N 44°34' E 038°05'0 0.0
2018-Jul-15 02:30N 44°34' E 038°05'0 0.0
2018-Jul-15 02:01N 44°34' E 038°05'0 0.0
2018-Jul-15 01:30N 44°34' E 038°05'0 0.0
2018-Jul-15 01:00N 44°34' E 038°05'0 0.0
2018-Jul-15 00:31N 44°34' E 038°05'0 0.0
2018-Jul-14 23:59N 44°34' E 038°05'0 0.0
2018-Jul-14 23:30N 44°34' E 038°05'0 0.0
2018-Jul-14 23:01N 44°34' E 038°05'0 0.0
2018-Jul-14 22:30N 44°34' E 038°05'0 0.0
2018-Jul-14 21:59N 44°34' E 038°05'0 0.0
2018-Jul-14 21:30N 44°34' E 038°05'1 2.0
2018-Jul-14 21:00N 44°34' E 038°03'0 0.8
2018-Jul-14 20:30N 44°34' E 038°03'2 3.7
2018-Jul-14 20:00N 44°33' E 038°01'0 0.4
2018-Jul-14 19:30N 44°33' E 038°01'1 2.1
2018-Jul-14 19:00N 44°33' E 038°02'2 3.4
2018-Jul-14 18:30N 44°34' E 038°05'0 0.0
2018-Jul-14 18:00N 44°34' E 038°05'2 3.6
2018-Jul-14 17:30N 44°35' E 038°03'0 0.6
2018-Jul-14 16:37N 44°35' E 038°03'0 4.4
2018-Jul-14 16:31N 44°35' E 038°03'2 3.5
2018-Jul-14 15:59N 44°34' E 038°05'0 0.0
2018-Jul-14 15:29N 44°34' E 038°05'0 0.0
2018-Jul-14 15:00N 44°34' E 038°05'2 3.5
2018-Jul-14 14:28N 44°35' E 038°03'0 0.1
2018-Jul-14 13:30N 44°35' E 038°03'2 3.6
2018-Jul-14 13:00N 44°34' E 038°05'0 0.0
2018-Jul-14 12:29N 44°34' E 038°05'0 0.5
2018-Jul-14 12:00N 44°34' E 038°04'1 1.8
2018-Jul-14 11:29N 44°34' E 038°03'1 2.1
2018-Jul-14 11:00N 44°33' E 038°02'2 3.6
2018-Jul-14 10:29N 44°35' E 038°03'2 3.8
2018-Jul-14 10:00N 44°34' E 038°05'0 0.4
2018-Jul-14 09:30N 44°34' E 038°04'1 2.9
2018-Jul-14 09:00N 44°34' E 038°03'2 3.4
2018-Jul-14 08:31N 44°33' E 038°01'2 4.7
2018-Jul-14 08:00N 44°35' E 038°03'2 3.7
2018-Jul-14 07:30N 44°34' E 038°05'0 0.0
2018-Jul-14 07:00N 44°34' E 038°05'0 0.0
2018-Jul-14 06:29N 44°34' E 038°05'0 0.0
2018-Jul-14 06:00N 44°34' E 038°05'0 0.0
2018-Jul-14 05:30N 44°34' E 038°05'0 0.0
2018-Jul-14 05:00N 44°34' E 038°04'0 0.1
2018-Jul-14 04:30N 44°34' E 038°05'0 0.0
2018-Jul-14 04:00N 44°34' E 038°05'0 0.0
2018-Jul-14 03:30N 44°34' E 038°05'0 0.0
2018-Jul-14 02:59N 44°34' E 038°05'0 0.0
2018-Jul-14 02:30N 44°34' E 038°05'0 0.0
2018-Jul-14 02:00N 44°34' E 038°05'0 0.0
2018-Jul-14 01:30N 44°34' E 038°05'0 0.0
2018-Jul-14 01:00N 44°34' E 038°05'0 0.0
2018-Jul-14 00:31N 44°34' E 038°05'0 0.0
2018-Jul-13 23:59N 44°34' E 038°05'0 0.0
2018-Jul-13 23:30N 44°34' E 038°05'0 0.0
2018-Jul-13 23:00N 44°34' E 038°05'0 0.0
2018-Jul-13 22:30N 44°34' E 038°05'0 0.0
2018-Jul-13 22:00N 44°34' E 038°05'0 0.0
2018-Jul-13 21:30N 44°34' E 038°05'1 2.3
2018-Jul-13 21:00N 44°34' E 038°03'0 0.2
2018-Jul-13 20:30N 44°35' E 038°03'0 0.2
2018-Jul-13 19:58N 44°35' E 038°03'1 2.0
2018-Jul-13 19:31N 44°34' E 038°03'0 0.6
2018-Jul-13 19:00N 44°33' E 038°03'1 2.7
2018-Jul-13 18:30N 44°34' E 038°05'0 0.5
2018-Jul-13 17:59N 44°34' E 038°04'1 3.1
2018-Jul-13 17:30N 44°35' E 038°03'1 1.1
2018-Jul-13 17:00N 44°34' E 038°02'1 1.9
2018-Jul-13 16:30N 44°35' E 038°03'2 3.6
2018-Jul-13 15:59N 44°34' E 038°05'0 0.0
2018-Jul-13 15:30N 44°34' E 038°05'0 0.4
2018-Jul-13 15:00N 44°34' E 038°04'1 1.4
2018-Jul-13 14:00N 44°34' E 038°02'2 3.0
2018-Jul-13 13:28N 44°35' E 038°03'2 3.9
2018-Jul-13 13:00N 44°34' E 038°05'0 0.0
2018-Jul-13 12:30N 44°34' E 038°05'0 0.0
2018-Jul-13 12:00N 44°34' E 038°05'1 2.5
2018-Jul-13 11:29N 44°34' E 038°03'1 1.0
2018-Jul-13 10:59N 44°33' E 038°02'2 3.4
2018-Jul-13 10:31N 44°35' E 038°03'2 3.7
2018-Jul-13 10:00N 44°34' E 038°05'0 0.5
2018-Jul-13 09:30N 44°34' E 038°04'1 2.5
2018-Jul-13 09:00N 44°34' E 038°03'1 2.7
2018-Jul-13 08:30N 44°33' E 038°02'2 4.0
2018-Jul-13 07:59N 44°35' E 038°03'2 3.7
2018-Jul-13 07:30N 44°34' E 038°04'0 0.0
2018-Jul-13 07:00N 44°34' E 038°04'0 0.0
2018-Jul-13 06:30N 44°34' E 038°05'0 0.0
2018-Jul-13 06:00N 44°34' E 038°05'0 0.0
2018-Jul-13 05:30N 44°34' E 038°05'0 0.0
2018-Jul-13 05:00N 44°34' E 038°05'0 0.0
2018-Jul-13 04:31N 44°34' E 038°05'0 0.0
2018-Jul-13 04:00N 44°34' E 038°05'0 0.0
2018-Jul-13 03:30N 44°34' E 038°05'0 0.0
2018-Jul-13 03:00N 44°34' E 038°05'0 0.0
2018-Jul-13 02:30N 44°34' E 038°05'0 0.0
2018-Jul-13 02:00N 44°34' E 038°05'0 0.0
2018-Jul-13 01:31N 44°34' E 038°05'0 0.0
2018-Jul-13 01:00N 44°34' E 038°05'0 0.0
2018-Jul-13 00:30N 44°34' E 038°05'0 0.0
2018-Jul-13 00:00N 44°34' E 038°05'0 0.0
2018-Jul-12 23:30N 44°34' E 038°05'0 0.0
2018-Jul-12 22:59N 44°34' E 038°05'0 0.0
2018-Jul-12 22:30N 44°34' E 038°05'0 0.0
2018-Jul-12 22:01N 44°34' E 038°05'0 0.0
2018-Jul-12 21:30N 44°34' E 038°05'2 3.2
2018-Jul-12 21:00N 44°35' E 038°03'0 0.1
2018-Jul-12 20:30N 44°35' E 038°03'0 0.1
2018-Jul-12 20:00N 44°35' E 038°03'1 1.9
2018-Jul-12 19:30N 44°34' E 038°03'0 0.2
2018-Jul-12 19:00N 44°34' E 038°03'1 2.8
2018-Jul-12 18:30N 44°34' E 038°05'0 0.9
2018-Jul-12 18:00N 44°34' E 038°04'1 1.9
2018-Jul-12 17:29N 44°34' E 038°03'1 2.0
2018-Jul-12 17:00N 44°33' E 038°02'2 3.8
2018-Jul-12 16:28N 44°35' E 038°03'2 4.0
2018-Jul-12 16:00N 44°34' E 038°04'0 0.0
2018-Jul-12 15:30N 44°34' E 038°05'1 1.4
2018-Jul-12 15:00N 44°34' E 038°04'1 1.5
2018-Jul-12 14:30N 44°34' E 038°03'1 1.2
2018-Jul-12 14:00N 44°33' E 038°02'2 3.5
2018-Jul-12 13:29N 44°35' E 038°03'2 3.8
2018-Jul-12 13:00N 44°34' E 038°05'0 0.0
2018-Jul-12 12:30N 44°34' E 038°05'1 1.2
2018-Jul-12 12:00N 44°34' E 038°04'1 2.0
2018-Jul-12 11:31N 44°33' E 038°03'1 1.5
2018-Jul-12 11:00N 44°33' E 038°02'2 4.4
2018-Jul-12 10:30N 44°35' E 038°03'2 3.6
2018-Jul-12 10:00N 44°34' E 038°05'1 1.2
2018-Jul-12 09:30N 44°34' E 038°04'1 2.1
2018-Jul-12 08:59N 44°33' E 038°03'1 1.4
2018-Jul-12 08:30N 44°33' E 038°02'2 4.3
2018-Jul-12 07:58N 44°35' E 038°03'2 4.0
2018-Jul-12 07:30N 44°34' E 038°05'0 0.0
2018-Jul-12 07:00N 44°34' E 038°05'0 0.0
2018-Jul-12 06:30N 44°34' E 038°05'0 0.0
2018-Jul-12 05:59N 44°34' E 038°05'0 0.0
2018-Jul-12 05:30N 44°34' E 038°05'0 0.0
2018-Jul-12 05:01N 44°34' E 038°05'0 0.0
2018-Jul-12 04:30N 44°34' E 038°05'0 0.0
2018-Jul-12 04:00N 44°34' E 038°04'0 0.0
2018-Jul-12 03:30N 44°34' E 038°05'0 0.0
2018-Jul-12 02:59N 44°34' E 038°05'0 0.0
2018-Jul-12 02:30N 44°34' E 038°05'0 0.0
2018-Jul-12 02:00N 44°34' E 038°05'0 0.0
2018-Jul-12 01:30N 44°34' E 038°05'0 0.0
2018-Jul-12 01:00N 44°34' E 038°05'0 0.0
2018-Jul-12 00:30N 44°34' E 038°05'0 0.0
2018-Jul-12 00:00N 44°34' E 038°05'0 0.0
2018-Jul-11 23:31N 44°34' E 038°05'0 0.0
2018-Jul-11 23:01N 44°34' E 038°05'0 0.0
2018-Jul-11 22:30N 44°34' E 038°05'0 0.0
2018-Jul-11 22:01N 44°34' E 038°05'0 0.0
2018-Jul-11 21:31N 44°34' E 038°05'1 2.3
2018-Jul-11 21:00N 44°34' E 038°03'0 0.3
2018-Jul-11 20:30N 44°34' E 038°03'0 0.2
2018-Jul-11 20:01N 44°34' E 038°03'0 0.3
2018-Jul-11 19:30N 44°34' E 038°03'1 1.4
2018-Jul-11 18:59N 44°34' E 038°03'1 2.9
2018-Jul-11 18:31N 44°34' E 038°05'0 0.2
2018-Jul-11 18:00N 44°34' E 038°04'1 2.9
2018-Jul-11 17:30N 44°34' E 038°03'2 3.0
2018-Jul-11 17:00N 44°33' E 038°02'2 4.5
2018-Jul-11 16:30N 44°35' E 038°03'2 3.7
2018-Jul-11 16:00N 44°34' E 038°05'0 0.0
2018-Jul-11 15:30N 44°34' E 038°05'0 0.1
2018-Jul-11 15:00N 44°34' E 038°04'1 2.7
2018-Jul-11 14:30N 44°34' E 038°03'1 2.8
2018-Jul-11 14:00N 44°33' E 038°02'2 4.9
2018-Jul-11 13:30N 44°35' E 038°03'2 3.7
2018-Jul-11 13:00N 44°34' E 038°05'0 0.0
2018-Jul-11 12:30N 44°34' E 038°05'0 0.0
2018-Jul-11 12:00N 44°34' E 038°05'1 2.5
2018-Jul-11 11:29N 44°34' E 038°03'1 2.0
2018-Jul-11 11:01N 44°35' E 038°03'1 2.8
2018-Jul-11 10:30N 44°33' E 038°02'2 3.6
2018-Jul-11 10:00N 44°34' E 038°05'0 0.0
2018-Jul-11 09:30N 44°34' E 038°05'2 3.6
2018-Jul-11 09:00N 44°35' E 038°03'1 1.8
2018-Jul-11 08:30N 44°34' E 038°03'1 1.7
2018-Jul-11 08:00N 44°35' E 038°03'2 3.7
2018-Jul-11 07:30N 44°34' E 038°05'0 0.0
2018-Jul-11 07:00N 44°34' E 038°05'0 0.0
2018-Jul-11 06:30N 44°34' E 038°05'0 0.0
2018-Jul-11 06:00N 44°34' E 038°05'0 0.0
2018-Jul-11 05:30N 44°34' E 038°05'0 0.0
2018-Jul-11 05:00N 44°34' E 038°05'0 0.0
2018-Jul-11 04:30N 44°34' E 038°05'0 0.0
2018-Jul-11 04:00N 44°34' E 038°04'0 0.0
2018-Jul-11 03:29N 44°34' E 038°05'0 0.0
2018-Jul-11 02:59N 44°34' E 038°05'0 0.0
2018-Jul-11 02:30N 44°34' E 038°05'0 0.0
2018-Jul-11 02:00N 44°34' E 038°05'0 0.0
2018-Jul-11 01:30N 44°34' E 038°05'0 0.0
2018-Jul-11 01:00N 44°34' E 038°05'0 0.0
2018-Jul-11 00:31N 44°34' E 038°05'0 0.0
2018-Jul-11 00:00N 44°34' E 038°05'0 0.0
2018-Jul-10 23:31N 44°34' E 038°05'0 0.0
2018-Jul-10 23:00N 44°34' E 038°05'0 0.0
2018-Jul-10 22:30N 44°34' E 038°05'0 0.0
2018-Jul-10 22:01N 44°34' E 038°05'0 0.0
2018-Jul-10 21:30N 44°34' E 038°05'2 3.1
2018-Jul-10 21:01N 44°33' E 038°02'1 2.2
2018-Jul-10 20:30N 44°32' E 038°03'0 0.3
2018-Jul-10 20:01N 44°32' E 038°03'1 1.2
2018-Jul-10 19:30N 44°33' E 038°02'1 2.4
2018-Jul-10 19:00N 44°34' E 038°03'1 1.9
2018-Jul-10 18:30N 44°34' E 038°05'1 2.0
2018-Jul-10 18:00N 44°34' E 038°03'1 2.2
2018-Jul-10 17:30N 44°34' E 038°02'1 1.7
2018-Jul-10 17:00N 44°33' E 038°01'2 4.2
2018-Jul-10 16:29N 44°35' E 038°03'2 3.8
2018-Jul-10 16:00N 44°34' E 038°05'1 1.2
2018-Jul-10 15:30N 44°34' E 038°04'1 1.5
2018-Jul-10 14:59N 44°34' E 038°03'1 2.3
2018-Jul-10 14:30N 44°33' E 038°02'2 4.6
2018-Jul-10 14:00N 44°35' E 038°03'2 3.7
2018-Jul-10 13:30N 44°34' E 038°05'0 0.0
2018-Jul-10 12:59N 44°34' E 038°05'2 3.3
2018-Jul-10 12:30N 44°33' E 038°03'  

Dump ship's entire track history